Nur fliegen ist schöner ....

Willkommen beim Flugservice Bautzen GmbH

Wir sind eine nach europäischen Richtlinien zugelassene Flugschule und lizenziertes Luftfahrtunternehmen. Bei uns können sie nicht nur Rundflüge über die Oberlausitz oder Sachsen buchen, sondern in unserer Flugschule selber das Fliegen erlernen. Erfahrene Fluglehrer stehen ihnen dabei zur Seite.

Wir bieten außerdem Businessflüghe sowie Transportleistungen auf dem Luftweg, ganz nach ihren Wünschen, an. Schauen sie sich in Ruhe bei uns um und wenn sie Fragen haben oder weitere Informationen benötigen, scheuen sie sich nicht Kontakt mit uns aufzunehmen.

Rundflüge können sie ganz leicht auch online in unserem Shop buchen.

Terminkalender

Letzter Monat Januar 2017 Nächster Monat
Mo Di Mi Do Fr Sa So
week 52 1
week 1 2 3 4 5 6 7 8
week 2 9 10 11 12 13 14 15
week 3 16 17 18 19 20 21 22
week 4 23 24 25 26 27 28 29
week 5 30 31

Flugwetterinfo

[Quelle: ADDS]
METAR
EDDC 161650Z 32006KT 9999 -SN FEW005 BKN008 BKN021 M05/M05 Q1026 R04/29//95 NOSIG =
TAF
EDDC 161100Z 1612/1712 33004KT 4500 -SN BR BKN004 TEMPO 1612/1618 6000 BKN006 PROB30 TEMPO 1614/1617 SCT006 BKN010 TEMPO 1618/1709 2500 -SN BR BECMG 1708/1710 BKN007 =
SR / SS: 06:57 / 15:25 UTC (EDAB Flugplatz Bautzen 2017-01-16)

Webcam EDAB

Webcam EDAB
Flugservice Bautzen GmbH, Kornmarkt 34, 02625 Bautzen  Telefon: +49 (3591) 211105, Telefax: +49 (3591) 274512, E-Mail:  flugservice(at)fsbautzen.de